Arthur City, TX

8:45 PM CDT on May 26, 2015 (GMT -0500)
Golden Eagle Farms | | Change Station
CLOSE
Current Station
Personal Weather Station
Location: Hugo, OK
Elevation: 430 ft
Nearby Weather Stations

Elev 430 ft 33.91 °N, 95.58 °W | Updated 2 minutes ago

Clear
Clear
75.5 °F
Feels Like 75 °F
N
5.0
Wind Variable Wind from ESE
Gusts 8.0 mph

Today
High -- | Low -- °F
--% Chance of Precip.
Yesterday
High -- | Low -- °F
Precip. -- in
6:14 AM 8:23 PM
Waxing Gibbous, 63% visible
Pressure 29.97 in
Visibility 10.0 miles
Clouds Clear
Heat Index 75 °F
Dew Point 72 °F
Humidity 89%
Rainfall 0.00 in
Snow Depth Not available.
UV 0 out of 12
Pollen 6.10 out of 12
Air Quality Not available.
Flu Activity Sporadic
METAR KHHW 270135Z AUTO 15005KT 10SM VCTS CLR 24/22 A2997 RMK AO2 LTG DSNT N T02430218

More Conditions Fewer Conditions

Pressure 29.97 in
Visibility 10.0 miles
Clouds Clear
Heat Index 75 °F
Dew Point 72 °F
Humidity 89%
Rainfall 0.00 in
Snow Depth Not available.
UV 0 out of 12
Pollen 6.10 out of 12
Air Quality Not available.
Flu Activity Sporadic
METAR KHHW 270135Z AUTO 15005KT 10SM VCTS CLR 24/22 A2997 RMK AO2 LTG DSNT N T02430218

More Conditions Fewer Conditions

Nowcast | as of 8:20 PM CDT on May 26, 2015

Scattered to numerous thunderstorms will move east across the region north of a Goldthwaite to Hillsboro to Canton line through midnight. A few storms will produce hail up to the size of golfballs and wind gusts over 60 mph. A tornado or two is possible mainly across Eastland...Erath and Comanche counties. Otherwise...expect mostly cloudy skies with temperatures falling into the 60s in areas that receive rain. Elsewhere...temperatures will fall into the lower to mid 70s by midnight.

×

10-Day Weather Forecast

Almanac

Astronomy

May. 26, 2015 Rise Set
Actual Time
Civil Twilight
Nautical Twilight
Astronomical Twilight
Moon
Length of Visible Light
Length of Day
Tomorrow will be .
, % of the Moon is Illuminated

Today's Extremes

State Highs State Lows

Community

WunderPhotos

Upload Photos

1,824,549 photos uploaded!

WunderBlogs® & News

Nearby

Air Quality

  Air Quality AQ Index Pollutant
Not available.

Snow Depth

Station Depth Elevation

Earthquake Activity

City Distance Mag. Time & Date
Minimum magnitude displayed is 2.5.

Coastal Water Temperatures

Place Temperature

Stations

Nearby Weather Stations

Station Location Temp. Windchill Dew Point Humidity Wind Precip. Elev Updated Type